Impacts TAF Board INFO
FOR SITUATIONAL AWARENESS. NOT TO BE USED FOR FLIGHT PLANNING PURPOSES.
IDs:

KCLE - Cleveland/Hopkins In, OH, US

Issued at 1136 UTC 25 Feb 2018
Updated at 1323 UTC 25 Feb 2018
Potential Impact None Slight Moderate High
Time<<26/14Z 26/15Z 26/16Z 26/17Z 26/18Z 26/19Z 26/20Z 26/21Z 26/22Z 26/23Z 27/00Z 27/01Z 27/02Z
Type PRVL PRVL PRVL PRVL
VIS >6 >6 >6 >6
CIG -- -- -- --
Cover SKC SKC SKC SKC
FltCat VFR VFR VFR VFR
WX -- -- -- --
WDir 240 240 240 240
WSpd 8 8 8 8
WGst -- -- -- --

Raw TAF
KCLE 251136Z 2512/2618 24022G42KT P6SM SCT015 OVC025
  TEMPO 2512/2513 4SM -SHRA BKN015
  FM251700 24018G35KT P6SM BKN035
  FM252000 25015G30KT P6SM SCT035
  FM260400 24008KT P6SM SKC


METAR Board
Radar Display
Forecast Discussion

FOR SITUATIONAL AWARENESS. NOT TO BE USED FOR FLIGHT PLANNING PURPOSES.